sensor_id;sensor_type;location;lat;lon;timestamp;P1;durP1;ratioP1;P2;durP2;ratioP2
37169;SDS011;23062;13.952;100.608;2023-01-29T00:01:47;28.00;;;20.00;;
37169;SDS011;23062;13.952;100.608;2023-01-29T00:06:11;24.00;;;19.00;;
37169;SDS011;23062;13.952;100.608;2023-01-29T00:10:36;27.00;;;20.00;;
37169;SDS011;23062;13.952;100.608;2023-01-29T00:15:02;23.00;;;17.00;;
37169;SDS011;23062;13.952;100.608;2023-01-29T00:19:27;23.00;;;18.00;;
37169;SDS011;23062;13.952;100.608;2023-01-29T00:23:53;26.00;;;19.00;;
37169;SDS011;23062;13.952;100.608;2023-01-29T00:28:18;25.00;;;18.00;;
37169;SDS011;23062;13.952;100.608;2023-01-29T00:32:44;26.00;;;20.00;;
37169;SDS011;23062;13.952;100.608;2023-01-29T00:37:09;25.00;;;20.00;;
37169;SDS011;23062;13.952;100.608;2023-01-29T00:41:37;28.00;;;22.00;;
37169;SDS011;23062;13.952;100.608;2023-01-29T00:46:21;35.00;;;26.00;;
37169;SDS011;23062;13.952;100.608;2023-01-29T00:50:46;31.00;;;23.00;;
37169;SDS011;23062;13.952;100.608;2023-01-29T00:55:11;32.00;;;24.00;;
37169;SDS011;23062;13.952;100.608;2023-01-29T00:59:39;31.00;;;23.00;;
37169;SDS011;23062;13.952;100.608;2023-01-29T01:04:04;27.00;;;21.00;;
37169;SDS011;23062;13.952;100.608;2023-01-29T01:08:29;31.00;;;23.00;;
37169;SDS011;23062;13.952;100.608;2023-01-29T01:13:11;28.00;;;20.53;;
37169;SDS011;23062;13.952;100.608;2023-01-29T01:17:36;33.00;;;25.00;;
37169;SDS011;23062;13.952;100.608;2023-01-29T01:22:03;28.00;;;21.00;;
37169;SDS011;23062;13.952;100.608;2023-01-29T01:26:28;32.00;;;23.00;;
37169;SDS011;23062;13.952;100.608;2023-01-29T01:30:54;29.00;;;22.00;;
37169;SDS011;23062;13.952;100.608;2023-01-29T01:35:19;29.00;;;21.00;;
37169;SDS011;23062;13.952;100.608;2023-01-29T01:39:45;26.00;;;20.00;;
37169;SDS011;23062;13.952;100.608;2023-01-29T01:48:58;26.00;;;20.00;;
37169;SDS011;23062;13.952;100.608;2023-01-29T01:53:49;28.00;;;21.00;;
37169;SDS011;23062;13.952;100.608;2023-01-29T02:03:01;33.00;;;25.00;;
37169;SDS011;23062;13.952;100.608;2023-01-29T02:07:46;36.00;;;27.00;;
37169;SDS011;23062;13.952;100.608;2023-01-29T02:12:30;28.00;;;22.00;;
37169;SDS011;23062;13.952;100.608;2023-01-29T02:16:56;32.00;;;21.47;;
37169;SDS011;23062;13.952;100.608;2023-01-29T02:26:03;32.00;;;23.00;;
37169;SDS011;23062;13.952;100.608;2023-01-29T02:30:45;30.00;;;22.00;;
37169;SDS011;23062;13.952;100.608;2023-01-29T02:35:14;29.00;;;22.00;;
37169;SDS011;23062;13.952;100.608;2023-01-29T02:39:57;32.00;;;23.00;;
37169;SDS011;23062;13.952;100.608;2023-01-29T02:44:46;30.00;;;21.47;;
37169;SDS011;23062;13.952;100.608;2023-01-29T02:49:12;32.00;;;25.00;;
37169;SDS011;23062;13.952;100.608;2023-01-29T02:53:31;33.00;;;25.00;;
37169;SDS011;23062;13.952;100.608;2023-01-29T02:58:15;30.00;;;22.00;;
37169;SDS011;23062;13.952;100.608;2023-01-29T03:02:46;28.00;;;20.00;;
37169;SDS011;23062;13.952;100.608;2023-01-29T03:07:27;28.00;;;21.00;;
37169;SDS011;23062;13.952;100.608;2023-01-29T03:12:11;26.00;;;19.00;;
37169;SDS011;23062;13.952;100.608;2023-01-29T03:16:48;28.00;;;22.00;;
37169;SDS011;23062;13.952;100.608;2023-01-29T03:21:21;28.00;;;20.00;;
37169;SDS011;23062;13.952;100.608;2023-01-29T03:26:04;28.00;;;21.00;;
37169;SDS011;23062;13.952;100.608;2023-01-29T03:30:48;28.00;;;22.00;;
37169;SDS011;23062;13.952;100.608;2023-01-29T03:35:37;33.00;;;24.00;;
37169;SDS011;23062;13.952;100.608;2023-01-29T03:40:03;33.00;;;26.00;;
37169;SDS011;23062;13.952;100.608;2023-01-29T03:44:37;31.00;;;24.00;;
37169;SDS011;23062;13.952;100.608;2023-01-29T03:49:07;31.00;;;22.00;;
37169;SDS011;23062;13.952;100.608;2023-01-29T03:53:57;27.00;;;21.00;;
37169;SDS011;23062;13.952;100.608;2023-01-29T04:07:39;25.00;;;19.00;;
37169;SDS011;23062;13.952;100.608;2023-01-29T04:12:07;27.00;;;20.00;;
37169;SDS011;23062;13.952;100.608;2023-01-29T04:16:38;28.00;;;20.00;;
37169;SDS011;23062;13.952;100.608;2023-01-29T04:21:03;26.00;;;19.00;;
37169;SDS011;23062;13.952;100.608;2023-01-29T04:25:33;25.00;;;19.00;;
37169;SDS011;23062;13.952;100.608;2023-01-29T04:39:38;24.00;;;16.80;;
37169;SDS011;23062;13.952;100.608;2023-01-29T04:48:57;24.00;;;19.00;;
37169;SDS011;23062;13.952;100.608;2023-01-29T04:53:33;26.00;;;19.00;;
37169;SDS011;23062;13.952;100.608;2023-01-29T05:02:37;26.00;;;19.00;;
37169;SDS011;23062;13.952;100.608;2023-01-29T05:07:03;26.00;;;19.00;;
37169;SDS011;23062;13.952;100.608;2023-01-29T05:11:32;24.00;;;18.00;;
37169;SDS011;23062;13.952;100.608;2023-01-29T05:16:03;24.00;;;18.00;;
37169;SDS011;23062;13.952;100.608;2023-01-29T05:20:32;26.00;;;19.00;;
37169;SDS011;23062;13.952;100.608;2023-01-29T05:25:00;23.00;;;17.00;;
37169;SDS011;23062;13.952;100.608;2023-01-29T05:29:27;26.00;;;20.00;;
37169;SDS011;23062;13.952;100.608;2023-01-29T05:33:53;24.00;;;18.00;;
37169;SDS011;23062;13.952;100.608;2023-01-29T05:38:20;27.00;;;19.00;;
37169;SDS011;23062;13.952;100.608;2023-01-29T05:42:45;30.00;;;22.00;;
37169;SDS011;23062;13.952;100.608;2023-01-29T05:47:11;25.00;;;19.00;;
37169;SDS011;23062;13.952;100.608;2023-01-29T05:51:36;25.00;;;18.00;;
37169;SDS011;23062;13.952;100.608;2023-01-29T05:56:03;25.00;;;18.00;;
37169;SDS011;23062;13.952;100.608;2023-01-29T06:00:29;25.00;;;19.00;;
37169;SDS011;23062;13.952;100.608;2023-01-29T06:04:54;26.00;;;19.00;;
37169;SDS011;23062;13.952;100.608;2023-01-29T06:09:19;25.00;;;18.00;;
37169;SDS011;23062;13.952;100.608;2023-01-29T06:13:44;27.00;;;21.00;;
37169;SDS011;23062;13.952;100.608;2023-01-29T06:18:09;25.00;;;19.00;;
37169;SDS011;23062;13.952;100.608;2023-01-29T06:22:34;22.00;;;16.00;;
37169;SDS011;23062;13.952;100.608;2023-01-29T06:27:04;23.00;;;17.00;;
37169;SDS011;23062;13.952;100.608;2023-01-29T06:31:29;25.00;;;18.00;;
37169;SDS011;23062;13.952;100.608;2023-01-29T06:36:00;24.00;;;18.00;;
37169;SDS011;23062;13.952;100.608;2023-01-29T06:40:26;24.00;;;18.00;;
37169;SDS011;23062;13.952;100.608;2023-01-29T06:44:51;26.00;;;19.00;;
37169;SDS011;23062;13.952;100.608;2023-01-29T06:49:18;23.00;;;18.00;;
37169;SDS011;23062;13.952;100.608;2023-01-29T06:53:43;25.00;;;18.00;;
37169;SDS011;23062;13.952;100.608;2023-01-29T06:58:08;20.00;;;15.00;;
37169;SDS011;23062;13.952;100.608;2023-01-29T07:02:34;21.00;;;16.00;;
37169;SDS011;23062;13.952;100.608;2023-01-29T07:06:59;23.00;;;16.00;;
37169;SDS011;23062;13.952;100.608;2023-01-29T07:11:23;23.00;;;18.00;;
37169;SDS011;23062;13.952;100.608;2023-01-29T07:15:52;21.00;;;15.00;;
37169;SDS011;23062;13.952;100.608;2023-01-29T07:20:17;21.00;;;16.00;;
37169;SDS011;23062;13.952;100.608;2023-01-29T07:24:42;19.00;;;15.00;;
37169;SDS011;23062;13.952;100.608;2023-01-29T07:29:07;20.00;;;15.00;;
37169;SDS011;23062;13.952;100.608;2023-01-29T07:33:33;23.00;;;16.00;;
37169;SDS011;23062;13.952;100.608;2023-01-29T07:37:58;24.00;;;17.00;;
37169;SDS011;23062;13.952;100.608;2023-01-29T07:42:23;19.00;;;14.00;;
37169;SDS011;23062;13.952;100.608;2023-01-29T07:46:48;20.00;;;15.00;;
37169;SDS011;23062;13.952;100.608;2023-01-29T07:51:13;21.00;;;15.00;;
37169;SDS011;23062;13.952;100.608;2023-01-29T07:55:39;23.00;;;17.00;;
37169;SDS011;23062;13.952;100.608;2023-01-29T08:00:05;22.00;;;17.00;;
37169;SDS011;23062;13.952;100.608;2023-01-29T08:04:31;28.00;;;20.00;;
37169;SDS011;23062;13.952;100.608;2023-01-29T08:08:56;23.00;;;18.00;;
37169;SDS011;23062;13.952;100.608;2023-01-29T08:13:20;23.00;;;17.00;;
37169;SDS011;23062;13.952;100.608;2023-01-29T08:17:46;26.00;;;19.00;;
37169;SDS011;23062;13.952;100.608;2023-01-29T08:22:10;34.00;;;25.00;;
37169;SDS011;23062;13.952;100.608;2023-01-29T08:26:37;32.00;;;24.00;;
37169;SDS011;23062;13.952;100.608;2023-01-29T08:31:03;36.00;;;27.00;;
37169;SDS011;23062;13.952;100.608;2023-01-29T08:35:30;32.00;;;25.00;;
37169;SDS011;23062;13.952;100.608;2023-01-29T08:39:55;36.00;;;28.00;;
37169;SDS011;23062;13.952;100.608;2023-01-29T08:44:20;34.00;;;25.00;;
37169;SDS011;23062;13.952;100.608;2023-01-29T08:48:45;29.00;;;21.00;;
37169;SDS011;23062;13.952;100.608;2023-01-29T08:53:09;28.00;;;21.00;;
37169;SDS011;23062;13.952;100.608;2023-01-29T08:57:35;31.00;;;23.00;;
37169;SDS011;23062;13.952;100.608;2023-01-29T09:02:01;28.00;;;21.00;;
37169;SDS011;23062;13.952;100.608;2023-01-29T09:06:26;23.00;;;18.00;;
37169;SDS011;23062;13.952;100.608;2023-01-29T09:10:51;23.00;;;18.00;;
37169;SDS011;23062;13.952;100.608;2023-01-29T09:15:16;28.00;;;22.00;;
37169;SDS011;23062;13.952;100.608;2023-01-29T09:19:42;32.00;;;25.00;;
37169;SDS011;23062;13.952;100.608;2023-01-29T09:24:07;30.00;;;23.00;;
37169;SDS011;23062;13.952;100.608;2023-01-29T09:28:32;31.00;;;24.00;;
37169;SDS011;23062;13.952;100.608;2023-01-29T09:32:57;22.00;;;16.00;;
37169;SDS011;23062;13.952;100.608;2023-01-29T09:37:23;29.00;;;22.00;;
37169;SDS011;23062;13.952;100.608;2023-01-29T09:41:58;29.00;;;21.00;;
37169;SDS011;23062;13.952;100.608;2023-01-29T09:46:29;26.00;;;20.00;;
37169;SDS011;23062;13.952;100.608;2023-01-29T09:50:53;28.00;;;21.00;;
37169;SDS011;23062;13.952;100.608;2023-01-29T09:59:57;30.00;;;22.00;;
37169;SDS011;23062;13.952;100.608;2023-01-29T10:13:58;35.00;;;26.00;;
37169;SDS011;23062;13.952;100.608;2023-01-29T10:27:40;29.00;;;21.00;;
37169;SDS011;23062;13.952;100.608;2023-01-29T10:32:07;25.00;;;18.00;;
37169;SDS011;23062;13.952;100.608;2023-01-29T10:36:45;21.00;;;16.00;;
37169;SDS011;23062;13.952;100.608;2023-01-29T10:45:39;19.00;;;15.00;;
37169;SDS011;23062;13.952;100.608;2023-01-29T10:54:48;23.00;;;18.00;;
37169;SDS011;23062;13.952;100.608;2023-01-29T10:59:26;25.00;;;19.00;;
37169;SDS011;23062;13.952;100.608;2023-01-29T11:04:10;27.00;;;20.00;;
37169;SDS011;23062;13.952;100.608;2023-01-29T11:08:28;26.00;;;19.00;;
37169;SDS011;23062;13.952;100.608;2023-01-29T11:12:53;32.00;;;24.00;;
37169;SDS011;23062;13.952;100.608;2023-01-29T11:17:20;31.00;;;22.00;;
37169;SDS011;23062;13.952;100.608;2023-01-29T11:21:55;31.00;;;22.00;;
37169;SDS011;23062;13.952;100.608;2023-01-29T11:26:19;27.00;;;20.00;;
37169;SDS011;23062;13.952;100.608;2023-01-29T11:30:45;22.00;;;17.00;;
37169;SDS011;23062;13.952;100.608;2023-01-29T11:39:42;24.00;;;18.00;;
37169;SDS011;23062;13.952;100.608;2023-01-29T11:44:18;24.00;;;17.00;;
37169;SDS011;23062;13.952;100.608;2023-01-29T11:48:44;26.00;;;19.00;;
37169;SDS011;23062;13.952;100.608;2023-01-29T11:53:40;24.00;;;17.00;;
37169;SDS011;23062;13.952;100.608;2023-01-29T11:57:57;24.00;;;19.00;;
37169;SDS011;23062;13.952;100.608;2023-01-29T12:02:36;23.00;;;18.00;;
37169;SDS011;23062;13.952;100.608;2023-01-29T12:07:03;23.00;;;18.00;;
37169;SDS011;23062;13.952;100.608;2023-01-29T12:11:31;25.00;;;18.00;;
37169;SDS011;23062;13.952;100.608;2023-01-29T12:16:11;26.00;;;19.00;;
37169;SDS011;23062;13.952;100.608;2023-01-29T12:20:56;30.00;;;22.00;;
37169;SDS011;23062;13.952;100.608;2023-01-29T12:39:30;32.00;;;23.00;;
37169;SDS011;23062;13.952;100.608;2023-01-29T12:44:04;34.00;;;25.00;;
37169;SDS011;23062;13.952;100.608;2023-01-29T12:48:30;29.00;;;22.00;;
37169;SDS011;23062;13.952;100.608;2023-01-29T12:53:13;28.00;;;21.00;;
37169;SDS011;23062;13.952;100.608;2023-01-29T12:57:55;28.00;;;22.00;;
37169;SDS011;23062;13.952;100.608;2023-01-29T13:07:19;31.00;;;23.00;;
37169;SDS011;23062;13.952;100.608;2023-01-29T13:11:54;31.00;;;22.00;;
37169;SDS011;23062;13.952;100.608;2023-01-29T13:16:26;28.00;;;20.00;;
37169;SDS011;23062;13.952;100.608;2023-01-29T13:20:53;28.00;;;21.00;;
37169;SDS011;23062;13.952;100.608;2023-01-29T13:25:19;27.00;;;18.67;;
37169;SDS011;23062;13.952;100.608;2023-01-29T13:29:47;29.00;;;22.00;;
37169;SDS011;23062;13.952;100.608;2023-01-29T13:34:13;25.00;;;19.00;;
37169;SDS011;23062;13.952;100.608;2023-01-29T13:38:48;26.00;;;20.00;;
37169;SDS011;23062;13.952;100.608;2023-01-29T13:43:18;30.00;;;22.00;;
37169;SDS011;23062;13.952;100.608;2023-01-29T13:47:42;31.00;;;22.00;;
37169;SDS011;23062;13.952;100.608;2023-01-29T14:02:37;31.00;;;24.00;;
37169;SDS011;23062;13.952;100.608;2023-01-29T14:06:12;32.00;;;25.00;;
37169;SDS011;23062;13.952;100.608;2023-01-29T14:10:39;33.00;;;25.00;;
37169;SDS011;23062;13.952;100.608;2023-01-29T14:15:19;36.00;;;26.00;;
37169;SDS011;23062;13.952;100.608;2023-01-29T14:19:48;35.00;;;25.00;;
37169;SDS011;23062;13.952;100.608;2023-01-29T14:28:43;33.00;;;24.00;;
37169;SDS011;23062;13.952;100.608;2023-01-29T14:37:52;33.00;;;25.00;;
37169;SDS011;23062;13.952;100.608;2023-01-29T14:42:21;30.00;;;24.00;;
37169;SDS011;23062;13.952;100.608;2023-01-29T14:46:52;37.00;;;27.00;;
37169;SDS011;23062;13.952;100.608;2023-01-29T14:51:17;35.00;;;26.00;;
37169;SDS011;23062;13.952;100.608;2023-01-29T14:55:49;39.00;;;28.00;;
37169;SDS011;23062;13.952;100.608;2023-01-29T15:00:22;30.00;;;23.00;;
37169;SDS011;23062;13.952;100.608;2023-01-29T15:04:50;35.00;;;25.00;;
37169;SDS011;23062;13.952;100.608;2023-01-29T15:09:25;33.00;;;26.00;;
37169;SDS011;23062;13.952;100.608;2023-01-29T15:14:04;34.00;;;25.00;;
37169;SDS011;23062;13.952;100.608;2023-01-29T15:18:48;35.00;;;27.00;;
37169;SDS011;23062;13.952;100.608;2023-01-29T15:23:29;32.00;;;22.40;;
37169;SDS011;23062;13.952;100.608;2023-01-29T15:27:52;32.00;;;24.00;;
37169;SDS011;23062;13.952;100.608;2023-01-29T15:32:23;33.00;;;24.00;;
37169;SDS011;23062;13.952;100.608;2023-01-29T15:36:51;32.00;;;24.00;;
37169;SDS011;23062;13.952;100.608;2023-01-29T15:41:20;29.00;;;23.00;;
37169;SDS011;23062;13.952;100.608;2023-01-29T15:45:46;32.00;;;24.00;;
37169;SDS011;23062;13.952;100.608;2023-01-29T15:50:15;34.00;;;26.00;;
37169;SDS011;23062;13.952;100.608;2023-01-29T15:54:42;29.00;;;22.00;;
37169;SDS011;23062;13.952;100.608;2023-01-29T15:59:07;33.00;;;24.00;;
37169;SDS011;23062;13.952;100.608;2023-01-29T16:03:35;30.00;;;22.00;;
37169;SDS011;23062;13.952;100.608;2023-01-29T16:08:00;30.00;;;23.00;;
37169;SDS011;23062;13.952;100.608;2023-01-29T16:12:32;33.00;;;25.00;;
37169;SDS011;23062;13.952;100.608;2023-01-29T16:16:57;28.00;;;21.00;;
37169;SDS011;23062;13.952;100.608;2023-01-29T16:26:04;33.00;;;25.00;;
37169;SDS011;23062;13.952;100.608;2023-01-29T16:30:29;31.00;;;24.00;;
37169;SDS011;23062;13.952;100.608;2023-01-29T16:34:55;29.00;;;22.00;;
37169;SDS011;23062;13.952;100.608;2023-01-29T16:39:23;30.00;;;23.00;;
37169;SDS011;23062;13.952;100.608;2023-01-29T16:43:57;32.00;;;25.00;;
37169;SDS011;23062;13.952;100.608;2023-01-29T16:48:38;30.00;;;23.00;;
37169;SDS011;23062;13.952;100.608;2023-01-29T16:57:44;33.00;;;25.00;;
37169;SDS011;23062;13.952;100.608;2023-01-29T17:02:24;34.00;;;27.00;;
37169;SDS011;23062;13.952;100.608;2023-01-29T17:06:43;35.00;;;26.00;;
37169;SDS011;23062;13.952;100.608;2023-01-29T17:11:08;36.00;;;27.00;;
37169;SDS011;23062;13.952;100.608;2023-01-29T17:15:43;34.00;;;26.00;;
37169;SDS011;23062;13.952;100.608;2023-01-29T17:20:10;38.00;;;29.00;;
37169;SDS011;23062;13.952;100.608;2023-01-29T17:24:36;37.00;;;29.00;;
37169;SDS011;23062;13.952;100.608;2023-01-29T17:29:02;35.00;;;26.00;;
37169;SDS011;23062;13.952;100.608;2023-01-29T17:33:28;35.00;;;27.00;;
37169;SDS011;23062;13.952;100.608;2023-01-29T17:37:53;37.00;;;28.00;;
37169;SDS011;23062;13.952;100.608;2023-01-29T17:42:20;37.00;;;28.00;;
37169;SDS011;23062;13.952;100.608;2023-01-29T17:46:46;32.00;;;21.47;;
37169;SDS011;23062;13.952;100.608;2023-01-29T17:51:12;35.00;;;26.00;;
37169;SDS011;23062;13.952;100.608;2023-01-29T17:55:38;35.00;;;26.00;;
37169;SDS011;23062;13.952;100.608;2023-01-29T18:00:10;36.00;;;26.00;;
37169;SDS011;23062;13.952;100.608;2023-01-29T18:04:34;35.00;;;26.00;;
37169;SDS011;23062;13.952;100.608;2023-01-29T18:08:58;31.00;;;23.00;;
37169;SDS011;23062;13.952;100.608;2023-01-29T18:13:23;33.00;;;24.00;;
37169;SDS011;23062;13.952;100.608;2023-01-29T18:17:49;30.00;;;23.00;;
37169;SDS011;23062;13.952;100.608;2023-01-29T18:22:14;31.00;;;23.00;;
37169;SDS011;23062;13.952;100.608;2023-01-29T18:26:40;33.00;;;25.00;;
37169;SDS011;23062;13.952;100.608;2023-01-29T18:31:05;28.00;;;21.00;;
37169;SDS011;23062;13.952;100.608;2023-01-29T18:35:30;28.00;;;22.00;;
37169;SDS011;23062;13.952;100.608;2023-01-29T18:39:57;27.00;;;20.00;;
37169;SDS011;23062;13.952;100.608;2023-01-29T18:44:24;27.00;;;21.00;;
37169;SDS011;23062;13.952;100.608;2023-01-29T18:48:53;27.00;;;20.00;;
37169;SDS011;23062;13.952;100.608;2023-01-29T18:53:19;27.00;;;20.00;;
37169;SDS011;23062;13.952;100.608;2023-01-29T18:57:44;28.00;;;21.00;;
37169;SDS011;23062;13.952;100.608;2023-01-29T19:02:13;23.00;;;18.00;;
37169;SDS011;23062;13.952;100.608;2023-01-29T19:06:40;27.00;;;21.00;;
37169;SDS011;23062;13.952;100.608;2023-01-29T19:11:05;27.00;;;19.00;;
37169;SDS011;23062;13.952;100.608;2023-01-29T19:15:30;24.00;;;18.00;;
37169;SDS011;23062;13.952;100.608;2023-01-29T19:19:55;25.00;;;19.00;;
37169;SDS011;23062;13.952;100.608;2023-01-29T19:24:21;26.00;;;19.00;;
37169;SDS011;23062;13.952;100.608;2023-01-29T19:28:46;26.00;;;19.00;;
37169;SDS011;23062;13.952;100.608;2023-01-29T19:33:12;26.00;;;20.00;;
37169;SDS011;23062;13.952;100.608;2023-01-29T19:37:40;25.00;;;18.00;;
37169;SDS011;23062;13.952;100.608;2023-01-29T19:42:05;26.00;;;20.00;;
37169;SDS011;23062;13.952;100.608;2023-01-29T19:46:31;22.00;;;17.00;;
37169;SDS011;23062;13.952;100.608;2023-01-29T19:51:00;23.00;;;18.00;;
37169;SDS011;23062;13.952;100.608;2023-01-29T19:55:28;26.00;;;19.00;;
37169;SDS011;23062;13.952;100.608;2023-01-29T19:59:56;24.00;;;18.00;;
37169;SDS011;23062;13.952;100.608;2023-01-29T20:04:22;26.00;;;20.00;;
37169;SDS011;23062;13.952;100.608;2023-01-29T20:08:48;26.00;;;19.00;;
37169;SDS011;23062;13.952;100.608;2023-01-29T20:13:13;25.00;;;19.00;;
37169;SDS011;23062;13.952;100.608;2023-01-29T20:17:40;24.00;;;18.00;;
37169;SDS011;23062;13.952;100.608;2023-01-29T20:22:06;25.00;;;19.00;;
37169;SDS011;23062;13.952;100.608;2023-01-29T20:26:32;27.00;;;20.00;;
37169;SDS011;23062;13.952;100.608;2023-01-29T20:30:57;25.00;;;18.00;;
37169;SDS011;23062;13.952;100.608;2023-01-29T20:35:23;22.00;;;14.93;;
37169;SDS011;23062;13.952;100.608;2023-01-29T20:39:48;28.00;;;21.00;;
37169;SDS011;23062;13.952;100.608;2023-01-29T20:44:13;22.00;;;17.00;;
37169;SDS011;23062;13.952;100.608;2023-01-29T20:48:38;26.00;;;19.00;;
37169;SDS011;23062;13.952;100.608;2023-01-29T20:53:03;20.00;;;15.00;;
37169;SDS011;23062;13.952;100.608;2023-01-29T20:57:29;24.00;;;19.00;;
37169;SDS011;23062;13.952;100.608;2023-01-29T21:01:55;24.00;;;18.00;;
37169;SDS011;23062;13.952;100.608;2023-01-29T21:06:19;27.00;;;19.00;;
37169;SDS011;23062;13.952;100.608;2023-01-29T21:10:47;27.00;;;21.00;;
37169;SDS011;23062;13.952;100.608;2023-01-29T21:15:13;26.00;;;20.00;;
37169;SDS011;23062;13.952;100.608;2023-01-29T21:19:38;27.00;;;19.00;;
37169;SDS011;23062;13.952;100.608;2023-01-29T21:24:08;27.00;;;20.00;;
37169;SDS011;23062;13.952;100.608;2023-01-29T21:28:33;24.00;;;19.00;;
37169;SDS011;23062;13.952;100.608;2023-01-29T21:32:58;22.00;;;16.00;;
37169;SDS011;23062;13.952;100.608;2023-01-29T21:37:24;28.00;;;21.00;;
37169;SDS011;23062;13.952;100.608;2023-01-29T21:41:49;28.00;;;20.00;;
37169;SDS011;23062;13.952;100.608;2023-01-29T21:46:32;24.00;;;19.00;;
37169;SDS011;23062;13.952;100.608;2023-01-29T21:50:57;28.00;;;21.00;;
37169;SDS011;23062;13.952;100.608;2023-01-29T21:55:22;27.00;;;21.00;;
37169;SDS011;23062;13.952;100.608;2023-01-29T21:59:51;27.00;;;21.00;;
37169;SDS011;23062;13.952;100.608;2023-01-29T22:04:19;32.00;;;23.00;;
37169;SDS011;23062;13.952;100.608;2023-01-29T22:08:44;27.00;;;20.00;;
37169;SDS011;23062;13.952;100.608;2023-01-29T22:13:09;24.00;;;19.00;;
37169;SDS011;23062;13.952;100.608;2023-01-29T22:17:34;25.00;;;19.00;;
37169;SDS011;23062;13.952;100.608;2023-01-29T22:22:00;21.00;;;16.00;;
37169;SDS011;23062;13.952;100.608;2023-01-29T22:26:25;26.00;;;19.00;;
37169;SDS011;23062;13.952;100.608;2023-01-29T22:30:52;23.00;;;17.00;;
37169;SDS011;23062;13.952;100.608;2023-01-29T22:35:18;26.00;;;20.00;;
37169;SDS011;23062;13.952;100.608;2023-01-29T22:39:43;27.00;;;20.00;;
37169;SDS011;23062;13.952;100.608;2023-01-29T22:44:08;25.00;;;19.00;;
37169;SDS011;23062;13.952;100.608;2023-01-29T22:48:35;27.00;;;20.00;;
37169;SDS011;23062;13.952;100.608;2023-01-29T22:53:03;29.00;;;22.00;;
37169;SDS011;23062;13.952;100.608;2023-01-29T22:57:28;32.00;;;23.00;;
37169;SDS011;23062;13.952;100.608;2023-01-29T23:01:54;31.00;;;23.00;;
37169;SDS011;23062;13.952;100.608;2023-01-29T23:06:19;28.00;;;21.00;;
37169;SDS011;23062;13.952;100.608;2023-01-29T23:10:47;24.00;;;19.00;;
37169;SDS011;23062;13.952;100.608;2023-01-29T23:15:12;29.00;;;21.00;;
37169;SDS011;23062;13.952;100.608;2023-01-29T23:19:40;28.00;;;20.00;;
37169;SDS011;23062;13.952;100.608;2023-01-29T23:24:05;32.00;;;24.00;;
37169;SDS011;23062;13.952;100.608;2023-01-29T23:28:34;31.00;;;24.00;;
37169;SDS011;23062;13.952;100.608;2023-01-29T23:32:59;30.00;;;23.00;;
37169;SDS011;23062;13.952;100.608;2023-01-29T23:37:25;27.00;;;19.60;;
37169;SDS011;23062;13.952;100.608;2023-01-29T23:41:50;29.00;;;22.00;;
37169;SDS011;23062;13.952;100.608;2023-01-29T23:46:18;29.00;;;23.00;;
37169;SDS011;23062;13.952;100.608;2023-01-29T23:50:44;33.00;;;24.00;;
37169;SDS011;23062;13.952;100.608;2023-01-29T23:55:09;31.00;;;24.00;;
37169;SDS011;23062;13.952;100.608;2023-01-29T23:59:34;31.00;;;23.00;;
